Aérodrome :
LOGIN :

S'inscrire | Disclaimer

   EN    FR    IT 

 










Légende :    VFR   VFR Marginal   IFR   IFR Intensif   IFR Très Intensif
Visi : 
Plafond : 
>= 8 km
>= 3000ft
5 à 8 km
1000 à 3000 ft
1500m à 5 km
500 à 1000 ft
800 à 1500m
200 à 500 ft
< 800m
< 200 ft
Symboles :   Orages  Brouillard  Fortes neiges  Fortes précipitations  Vent > 20 kt
SIGMETs :   Divers  Orages  Givrage  Turbulence  Onde Orograph.  Cendres Volcan.






- Altitude de l'aérodrome : 238 ft
- Code IATA : FAB


EGLF - Farnborough

DERNIER METAR :
  • 251520Z 24013KT 9999 NSC 07/01 Q0997

METARs EXPIRÉS :
  • 251450Z 25011KT 220V280 9999 NSC 06/03 Q0998
  • 251420Z 25012KT 220V290 9999 FEW021 06/04 Q0998 REUP
  • 251350Z 26010KT 230V290 9999 VCSH FEW014 SCT033 05/03 Q0999 RERA
  • 251320Z 25014KT 220V280 9999 -RA FEW024 SCT033 08/02 Q0999
  • 251250Z AUTO 25014KT 230V290 9999 FEW026/// SCT037/// 08/02 Q1000

TAF TAF EGLF
Valide du 25 à 15h jusqu'au 25 à 23h UTC


251359Z 2515/2523 25013KT 9999 SCT030
TEMPO 2515/2523 26016G26KT 6000 SHRA SHGS
PROB40
TEMPO 2515/2518 3000 +SHRAGS BKN014CB
PROB30
TEMPO 2518/2523 2000 SHRASN BKN010CB
ATIS : +44 09063 800 400 (*282)



MET'MAP, la Météo Aéronautique d'un coup d'oeil ! - Copyright ORBIFLY Décembre 2007 - Disclaimer

ORBIFLY MET'MAP TEAM :

Programmation & Développement : Alexandra Zaïnal
Sur une idée originale de : Baudouin d'Aumeries
Assistance à la programmation : Marc-Olivier Méhu
Soutien technique & logistique : Manuel Goepfert

Contact : metmap@orbifly.com




SOURCES & CREDITS :

   NOAA